South Thomaston, ME (04858)

6:28 PM EDT on March 27, 2017 (GMT -0400)
Saint George River GRN13 | | Change Station

Elev 49 ft 44.04 °N, 69.19 °W | Updated 5 minutes ago

Light Rain
Light Rain Mist
33.1 °F
Feels Like 33 °F
N
1.0
Wind Variable Wind from WNW
Gusts 8.0 mph

Today
High -- | Low -- °F
--% Chance of Precip.
Yesterday
High -- | Low -- °F
Precip. -- in
Pressure 30.08 in
Visibility 2.5 miles
Clouds Overcast 400 ft
Windchill 33 °F
Dew Point 31 °F
Humidity 91%
Rainfall 0.33 in
Snow Depth Not available.
6:26 AM 6:57 PM
Waning Crescent, 0% visible
SPECI KRKD 272209Z AUTO 06013KT 2 1/2SM -RA BR OVC004 01/00 A3008 RMK AO2 P0001 FZRANO
Pressure 30.08 in
Visibility 2.5 miles
Clouds Overcast 400 ft
Windchill 33 °F
Dew Point 31 °F
Humidity 91%
Rainfall 0.33 in
Snow Depth Not available.
6:26 AM 6:57 PM
Waning Crescent, 0% visible
SPECI KRKD 272209Z AUTO 06013KT 2 1/2SM -RA BR OVC004 01/00 A3008 RMK AO2 P0001 FZRANO

Get Severe Weather Alerts

Thanks for signing up!

Be on the lookout for a verification email in your inbox.

You'll start receiving the daily forecast at 8 AM.

×

10-Day Weather Forecast

Almanac

Astronomy

Mar. 27, 2017 Rise Set
Actual Time
Civil Twilight
Nautical Twilight
Astronomical Twilight
Moon
Length of Visible Light
Length of Day
Tomorrow will be .
, % of the Moon is Illuminated

Today's Extremes

State Highs State Lows

Community

WunderPhotos

Upload Photos

1,962,540 photos uploaded!

WunderBlog® & News

Nearby

Air Quality

  Air Quality AQ Index Pollutant
Not available.

Snow Depth

Station Depth Elevation

Earthquake Activity

City Distance Mag. Time & Date
Minimum magnitude displayed is 2.5.

Earthquake Activity

City Distance Mag. Time & Date
Minimum magnitude displayed is 2.5.

Coastal Water Temperatures

Place Temperature

Stations

Nearby Weather Stations

Station Location Temp. Windchill Dew Point Humidity Wind Precip. Elev Updated Type
                   

Watches & Warnings

There are currently no watches in effect.